ADDS METAR Data INFO
IDs: Format: Raw Decoded Include TAF

Data at: 0034 UTC 23 Oct 2017

KRNV 230015Z AUTO 32003KT 10SM BKN050 18/18 A3001 RMK AO2 T01750175
KRNV 222355Z AUTO 32004KT 10SM SCT017 SCT046 OVC050 18/18 A3001 RMK AO2 T01770176 10186 20177
KRNV 222335Z AUTO 31004KT 10SM SCT017 BKN038 OVC050 18/18 A3002 RMK AO2 T01800178
KRNV 222315Z AUTO 31004KT 10SM OVC034 18/18 A3000 RMK AO2 T01800180
KRNV 222255Z AUTO 31006KT 10SM SCT016 SCT025 OVC032 18/18 A3000 RMK AO2 T01800180
KRNV 222235Z AUTO 29008G16KT 10SM SCT014 BKN022 OVC036 18/18 A3001 RMK AO2 T01820182
KRNV 222215Z AUTO 30007KT 10SM SCT020 BKN027 OVC034 18/18 A2999 RMK AO2 T01820182
KRNV 222155Z AUTO 30007G14KT 10SM BKN012 OVC020 18/18 A2999 RMK AO2 LTG DSNT SE T01820182
KRNV 222135Z AUTO 26008KT 10SM OVC016 19/18 A3001 RMK AO2 T01850184
KRNV 222115Z AUTO 00000KT 10SM SCT018 OVC110 19/18 A2997 RMK AO2 T01850183
KRNV 222055Z AUTO 07004KT 10SM BKN014 BKN120 19/19 A2996 RMK AO2 T01850185
KRNV 222035Z AUTO 00000KT 10SM -DZ OVC012 18/18 A2998 RMK AO2 T01820181
KRNV 222015Z AUTO 26004KT 10SM OVC012 18/18 A3001 RMK AO2 T01820182
KRNV 221955Z AUTO 26008KT 10SM OVC012 19/19 A3001 RMK AO2 T01850185
KRNV 221935Z AUTO 24004KT 10SM OVC012 19/19 A3000 RMK AO2 T01850185
KRNV 221915Z AUTO 24008KT 10SM BKN012 OVC016 19/19 A3001 RMK AO2 T01850185
KRNV 221855Z AUTO 25006KT 10SM OVC012 18/18 A3001 RMK AO2 T01820182
KRNV 221835Z AUTO 24007KT 10SM OVC014 18/18 A3002 RMK AO2 T01830183
KRNV 221815Z AUTO 24009KT 10SM OVC014 19/19 A3003 RMK AO2 T01850185
KRNV 221755Z AUTO 22007KT 10SM OVC012 19/19 A3002 RMK AO2 T01850185 10214 20170
KRNV 221735Z AUTO 24005KT 10SM OVC010 19/19 A3003 RMK AO2 T01850185
KRNV 221715Z AUTO 25003KT 10SM BKN010 BKN075 BKN110 18/18 A3002 RMK AO2 T01820182
KRNV 221655Z AUTO 26004KT 10SM -DZ SCT010 SCT023 OVC075 18/18 A3004 RMK AO2 T01810181
KRNV 221635Z AUTO 28007KT 10SM -RA BKN075 OVC085 18/18 A3005 RMK AO2 T01820182
KRNV 221615Z AUTO 00000KT 10SM -RA OVC070 18/18 A3005 RMK AO2 T01820182
KRNV 221555Z AUTO 00000KT 10SM -RA SCT048 OVC075 18/18 A3003 RMK AO2 T01760176
KRNV 221535Z AUTO 07004KT 5SM RA SCT048 BKN065 OVC075 18/18 A3003 RMK AO2 T01750175
KRNV 221515Z AUTO 04005KT 10SM RA BKN065 OVC070 17/17 A3003 RMK AO2 T01730173
KRNV 221455Z AUTO 33006KT 10SM -RA BKN065 BKN080 OVC090 17/17 A3003 RMK AO2 T01700170
KRNV 221435Z AUTO 32007KT 10SM RA SCT050 BKN065 OVC100 17/17 A3003 RMK AO2 T01700170
KRNV 221415Z AUTO 33008KT 10SM -RA SCT011 BKN050 OVC065 17/17 A3004 RMK AO2 T01710171
KRNV 221355Z AUTO 29009G17KT 10SM SCT011 OVC048 17/17 A3002 RMK AO2 T01720172
KRNV 221335Z AUTO 33011G22KT 10SM SCT032 OVC044 17/17 A3002 RMK AO2 LTG DSNT S T01730173
KRNV 221315Z AUTO 32016G22KT 7SM -RA SCT009 BKN019 OVC043 18/18 A3002 RMK AO2 T01750175
KRNV 221255Z AUTO 27016G21KT 4SM +RA SCT007 BKN021 OVC031 20/19 A3002 RMK AO2 LTG DSNT SW T01980191
KRNV 221235Z AUTO 16006KT 10SM SCT023 BKN065 OVC110 21/19 A2999 RMK AO2 LTG DSNT SW T02130185
KRNV 221215Z AUTO 14008KT 10SM SCT037 SCT060 OVC100 21/18 A2998 RMK AO2 LTG DSNT SW T02130183
KRNV 221155Z AUTO 14011KT 10SM BKN039 BKN110 22/18 A2997 RMK AO2 LTG DSNT SW AND NW T02150180 10235 20212
KRNV 221135Z AUTO 15008KT 10SM BKN039 BKN100 22/18 A2998 RMK AO2 LTG DSNT SW AND NW T02150180
KRNV 221115Z AUTO 15009KT 10SM SCT035 BKN100 22/18 A2999 RMK AO2 LTG DSNT SW AND W T02150180
KRNV 221055Z AUTO 14008KT 10SM SCT033 21/18 A2999 RMK AO2 LTG DSNT W T02120181
KRNV 221035Z AUTO 15006KT 10SM VCTS SCT035 SCT075 SCT110 22/18 A3000 RMK AO2 LTG DSNT W AND NW T02160181
KRNV 221015Z AUTO 14005KT 10SM BKN039 BKN075 BKN110 22/18 A3000 RMK AO2 LTG DSNT W AND NW T02180181
KRNV 220955Z AUTO 15005KT 10SM OVC039 22/19 A3000 RMK AO2 LTG DSNT W T02180190
KRNV 220935Z AUTO 16004KT 10SM OVC039 22/20 A2999 RMK AO2 LTG DSNT W T02160195
KRNV 220915Z AUTO 17005KT 10SM BKN039 22/20 A2999 RMK AO2 T02150195
KRNV 220855Z AUTO 17006KT 10SM BKN039 22/20 A2999 RMK AO2 LTG DSNT W AND NW T02170197
KRNV 220835Z AUTO 17007KT 10SM CLR 21/20 A2998 RMK AO2 T02130201
KRNV 220815Z AUTO 18007KT 10SM CLR 22/20 A2997 RMK AO2 T02200198
KRNV 220755Z AUTO 17011KT 10SM CLR 22/20 A2997 RMK AO2 LTG DSNT W T02230199
KRNV 220735Z AUTO 16014G18KT 10SM CLR 23/20 A2997 RMK AO2 T02260200
KRNV 220715Z AUTO 16014G20KT 10SM CLR 23/21 A2997 RMK AO2 T02270205
KRNV 220655Z AUTO 17014G23KT 10SM CLR 23/21 A2998 RMK AO2 T02300207
KRNV 220635Z AUTO 16019G24KT 10SM CLR 23/21 A2999 RMK AO2 LTG DSNT S T02320213
KRNV 220615Z AUTO 16017G21KT 10SM CLR 23/22 A2999 RMK AO2 LTG DSNT NW T02330220
KRNV 220555Z AUTO 16015G21KT 10SM CLR 23/22 A3000 RMK AO2 LTG DSNT N AND S T02340221 10268 20225 402980182
KRNV 220535Z AUTO 16013G16KT 10SM CLR 23/22 A3000 RMK AO2 T02320223
KRNV 220515Z AUTO 16012G16KT 10SM CLR 23/22 A3001 RMK AO2 T02300222
KRNV 220455Z AUTO 16018G23KT 10SM CLR 23/22 A3001 RMK AO2 T02310221
KRNV 220435Z AUTO 16013KT 10SM CLR 23/22 A3002 RMK AO2 T02270224
KRNV 220415Z AUTO 16014G18KT 10SM CLR 23/23 A3003 RMK AO2 T02270225
KRNV 220355Z AUTO 16013G19KT 10SM CLR 23/23 A3004 RMK AO2 T02270227
KRNV 220335Z AUTO 15014G20KT 10SM SCT110 23/23 A3003 RMK AO2 T02250225
KRNV 220315Z AUTO 15016G24KT 10SM -RA BKN110 23/23 A3003 RMK AO2 T02270227
KRNV 220255Z AUTO 14015G24KT 10SM VCTSRA SCT110 24/21 A3003 RMK AO2 T02410208
KRNV 220235Z AUTO 14015G21KT 10SM SCT039 25/20 A3005 RMK AO2 LTG DSNT S T02450203
KRNV 220215Z AUTO 15014G22KT 10SM VCTS CLR 25/20 A3005 RMK AO2 LTG DSNT S T02460204
KRNV 220155Z AUTO 14015G20KT 10SM CLR 25/20 A3004 RMK AO2 LTG DSNT S T02460204
KRNV 220135Z AUTO 14014KT 10SM CLR 25/20 A3003 RMK AO2 LTG DSNT S AND SW T02470204
KRNV 220115Z AUTO 13012KT 10SM SCT080 25/21 A3003 RMK AO2 LTG DSNT S AND SW T02490206
KRNV 220055Z AUTO 13008KT 10SM VCTS SCT080 SCT110 25/21 A3004 RMK AO2 LTG DSNT S AND W T02460209
KRNV 220035Z AUTO 14008KT 10SM TS SCT060 SCT075 BKN110 25/21 A3005 RMK AO2 LTG DSNT SW THRU N T02450213
KRNV 220015Z AUTO 14008G15KT 7SM -VCTSRA SCT050 BKN065 OVC100 25/21 A3004 RMK AO2 LTG DSNT SW THRU NW T02500210
KRNV 212355Z AUTO 13012G18KT 10SM TS SCT065 SCT100 27/19 A3003 RMK AO2 LTG DSNT W T02680191 10298 20267
KRNV 212335Z AUTO 13011G14KT 10SM CLR 27/19 A3001 RMK AO2 T02680192
KRNV 212315Z AUTO 13008KT 10SM SCT055 27/19 A3001 RMK AO2 LTG DSNT SW T02710191
KRNV 212255Z AUTO 13011G14KT 10SM VCTS SCT055 28/19 A3000 RMK AO2 LTG DSNT W T02750188
KRNV 212235Z AUTO 14012KT 10SM BKN055 BKN070 28/19 A3001 RMK AO2 LTG DSNT W T02820189
KRNV 212215Z AUTO 15010KT 10SM SCT046 SCT075 28/19 A3001 RMK AO2 LTG DSNT SW T02810189
KRNV 212155Z AUTO 13010G16KT 10SM SCT050 BKN075 29/19 A3001 RMK AO2 T02890189
KRNV 212135Z AUTO 15010KT 10SM SCT048 29/19 A3000 RMK AO2 T02860185
KRNV 212115Z AUTO 15011KT 10SM SCT050 29/19 A3000 RMK AO2 LTG DSNT W T02920187
KRNV 212055Z AUTO 13011G15KT 10SM SCT047 BKN050 29/19 A3001 RMK AO2 T02860185
KRNV 212035Z AUTO 14010G15KT 10SM BKN046 BKN050 30/19 A3002 RMK AO2 T02950187
KRNV 212015Z AUTO 14013G16KT 10SM BKN046 30/19 A3001 RMK AO2 T02980188
KRNV 211955Z AUTO 15012G15KT 10SM SCT044 30/19 A3002 RMK AO2 T02950185
KRNV 211935Z AUTO 16013G17KT 10SM SCT044 29/19 A3002 RMK AO2 T02920185
KRNV 211915Z AUTO 17012G18KT 10SM SCT044 30/19 A3003 RMK AO2 T02950187
KRNV 211855Z AUTO 15008G16KT 10SM CLR 29/19 A3003 RMK AO2 T02910187
KRNV 211835Z AUTO 16011KT 10SM SCT041 28/19 A3004 RMK AO2 T02820186
KRNV 211815Z AUTO 17015G19KT 10SM CLR 28/19 A3005 RMK AO2 T02780188
KRNV 211755Z AUTO 17012G20KT 10SM SCT036 27/19 A3006 RMK AO2 T02710186 10275 20185
KRNV 211735Z AUTO 17014G19KT 10SM CLR 28/19 A3007 RMK AO2 T02750186
KRNV 211715Z AUTO 16017G20KT 10SM CLR 27/19 A3008 RMK AO2 T02740185
KRNV 211655Z AUTO 17014G25KT 10SM CLR 27/19 A3009 RMK AO2 T02710185
KRNV 211635Z AUTO 16015G20KT 10SM CLR 27/19 A3009 RMK AO2 T02730187
KRNV 211615Z AUTO 17014KT 10SM CLR 27/18 A3010 RMK AO2 T02680182
KRNV 211555Z AUTO 16013G21KT 10SM CLR 26/18 A3010 RMK AO2 LTG DSNT S T02610176
KRNV 211535Z AUTO 16012KT 10SM CLR 25/16 A3010 RMK AO2 T02530162
KRNV 211515Z AUTO 15009KT 10SM SCT046 24/15 A3010 RMK AO2 T02390150
KRNV 211455Z AUTO 14009KT 10SM CLR 23/14 A3011 RMK AO2 T02260141
KRNV 211435Z AUTO 14010KT 10SM CLR 22/14 A3011 RMK AO2 T02220139
KRNV 211415Z AUTO 14009KT 10SM CLR 21/14 A3011 RMK AO2 T02100135
KRNV 211355Z AUTO 14008KT 10SM CLR 20/13 A3010 RMK AO2 T01960131
KRNV 211335Z AUTO 13009KT 10SM CLR 19/13 A3010 RMK AO2 T01920131
KRNV 211315Z AUTO 13009KT 10SM CLR 19/13 A3009 RMK AO2 T01900130
KRNV 211255Z AUTO 13009KT 10SM CLR 19/13 A3009 RMK AO2 T01870130
KRNV 211235Z AUTO 13008KT 10SM CLR 19/13 A3008 RMK AO2 T01860130